TAF and METAR

METAR for Zabol Airport

OIZB 280500Z 33023G37KT 7000 NSC 20/01 Q1020
Report created 28. okt 06:00
wind 23 knots from NNW (330°) with gusts up to 37 knots visibility 7000 meters No significant clouds. Temperature 20° with dewpoint at 1° (Humidity 28.14%) Pressure 1020 hPa
No TAF available for Zabol Airport
Zabol Airport in Iran at 489m

Latest 5 airports